Time;durP1;ratioP1;P1;durP2;ratioP2;P2;SDS_P1;SDS_P2;PMS_P1;PMS_P2;Temp;Humidity;BMP_temperature;BMP_pressure;BME280_temperature;BME280_humidity;BME280_pressure;Samples;Min_cycle;Max_cycle;Signal;HPM_P1;HPM_P2
2023/01/27 00:00:50;;;;;;;9.17;6.37;;;4.00;43.70;;;;;;10302204;28;20232;-75
2023/01/27 00:05:54;;;;;;;8.80;6.60;;;4.10;43.60;;;;;;10297403;28;20231;-74
2023/01/27 00:16:22;;;;;;;8.70;6.90;;;4.10;43.50;;;;;;10298298;28;20231;-74
2023/01/27 00:26:48;;;;;;;10.10;7.30;;;4.10;43.20;;;;;;10296816;28;20286;-72
2023/01/27 00:37:11;;;;;;;9.13;7.00;;;4.00;43.30;;;;;;10300175;28;20241;-75
2023/01/27 00:42:16;;;;;;;9.47;7.20;;;4.00;43.40;;;;;;10300311;28;20227;-74
2023/01/27 00:47:19;;;;;;;8.73;7.00;;;4.00;43.50;;;;;;10299501;28;20750;-75
2023/01/27 00:52:22;;;;;;;8.57;6.87;;;4.10;43.50;;;;;;10298050;28;20247;-74
2023/01/27 00:57:26;;;;;;;9.13;7.07;;;4.10;43.40;;;;;;10302628;28;20231;-75
2023/01/27 01:02:29;;;;;;;9.53;7.47;;;4.10;43.50;;;;;;10298162;28;20228;-74
2023/01/27 01:07:33;;;;;;;9.50;7.27;;;4.10;43.40;;;;;;10292230;28;20263;-70
2023/01/27 01:12:37;;;;;;;10.27;7.87;;;4.10;43.40;;;;;;10299675;28;20250;-70
2023/01/27 01:17:40;;;;;;;10.30;8.03;;;4.10;43.40;;;;;;10295069;28;20243;-72
2023/01/27 01:22:43;;;;;;;10.60;7.97;;;4.20;43.40;;;;;;10292965;28;20228;-71
2023/01/27 01:27:48;;;;;;;10.70;8.50;;;4.20;43.40;;;;;;10297186;28;20236;-70
2023/01/27 01:32:51;;;;;;;10.53;7.90;;;4.40;43.60;;;;;;10291627;28;20638;-70
2023/01/27 01:37:54;;;;;;;11.30;8.53;;;4.30;43.50;;;;;;10294027;28;20231;-70
2023/01/27 01:43:01;;;;;;;10.97;8.50;;;4.30;43.40;;;;;;10299347;28;20795;-70
2023/01/27 01:48:09;;;;;;;11.37;9.53;;;4.30;43.30;;;;;;10302378;28;20648;-72
2023/01/27 01:53:12;;;;;;;12.30;9.17;;;4.30;43.30;;;;;;10293371;28;20239;-72
2023/01/27 01:58:19;;;;;;;11.33;8.90;;;4.30;43.40;;;;;;10293995;28;20232;-72
2023/01/27 02:03:23;;;;;;;12.67;9.33;;;4.30;43.50;;;;;;10294061;28;20238;-72
2023/01/27 02:08:30;;;;;;;11.67;9.40;;;4.40;43.30;;;;;;10294710;28;20231;-72
2023/01/27 02:13:35;;;;;;;12.70;9.30;;;4.50;43.50;;;;;;10294855;28;20234;-72
2023/01/27 02:18:40;;;;;;;11.23;8.80;;;4.40;44.00;;;;;;10299137;28;20294;-72
2023/01/27 02:23:49;;;;;;;11.63;9.40;;;4.40;43.30;;;;;;10292392;28;20231;-72
2023/01/27 02:28:56;;;;;;;11.20;9.50;;;4.40;43.30;;;;;;10296903;28;20782;-72
2023/01/27 02:34:04;;;;;;;14.80;10.13;;;4.40;43.20;;;;;;10292948;28;20346;-72
2023/01/27 02:39:10;;;;;;;12.23;9.13;;;4.40;43.20;;;;;;10294413;28;20235;-70
2023/01/27 02:44:14;;;;;;;11.60;9.47;;;4.40;43.20;;;;;;10296825;28;20712;-74
2023/01/27 02:49:17;;;;;;;10.77;8.37;;;4.40;43.30;;;;;;10292826;28;20734;-70
2023/01/27 02:54:20;;;;;;;10.57;8.63;;;4.50;43.30;;;;;;10297175;28;20219;-70
2023/01/27 02:59:25;;;;;;;12.17;9.20;;;4.50;43.30;;;;;;10297974;28;20231;-70
2023/01/27 03:04:28;;;;;;;11.13;8.30;;;4.50;43.20;;;;;;10307841;28;20590;-70
2023/01/27 03:09:31;;;;;;;13.67;9.47;;;4.50;43.30;;;;;;10304452;28;20925;-70
2023/01/27 03:19:57;;;;;;;11.13;8.80;;;4.50;43.20;;;;;;10304104;28;20246;-70
2023/01/27 03:25:00;;;;;;;11.87;9.00;;;4.40;43.00;;;;;;10304085;28;20227;-72
2023/01/27 03:30:06;;;;;;;14.53;9.70;;;4.50;43.00;;;;;;10302952;28;20235;-74
2023/01/27 03:35:10;;;;;;;12.90;9.40;;;4.50;43.10;;;;;;10301220;28;20736;-75
2023/01/27 03:50:57;;;;;;;11.47;8.87;;;4.50;43.10;;;;;;10297637;28;20696;-75
2023/01/27 03:56:01;;;;;;;11.70;9.73;;;4.50;43.10;;;;;;10301144;28;20247;-74
2023/01/27 04:01:07;;;;;;;11.93;10.13;;;4.50;43.10;;;;;;10302461;28;20236;-73
2023/01/27 04:16:58;;;;;;;13.10;9.77;;;4.50;43.10;;;;;;10301692;28;20235;-73
2023/01/27 04:22:02;;;;;;;14.17;10.90;;;4.50;43.10;;;;;;10301011;28;20227;-72
2023/01/27 04:27:07;;;;;;;16.77;11.00;;;4.50;43.20;;;;;;10302301;28;20251;-74
2023/01/27 04:32:13;;;;;;;14.43;10.87;;;4.50;43.20;;;;;;10298464;28;20230;-75
2023/01/27 04:37:17;;;;;;;15.67;11.00;;;4.40;43.10;;;;;;10300886;28;20215;-70
2023/01/27 04:42:20;;;;;;;14.93;10.83;;;4.40;43.30;;;;;;10299138;28;20242;-72
2023/01/27 04:47:25;;;;;;;12.40;9.87;;;4.40;43.20;;;;;;10296466;28;20258;-74
2023/01/27 04:52:28;;;;;;;13.13;10.47;;;4.40;43.30;;;;;;10295809;28;20227;-75
2023/01/27 04:57:31;;;;;;;13.43;10.47;;;4.40;43.30;;;;;;10300542;28;20231;-70
2023/01/27 05:02:35;;;;;;;13.63;10.57;;;4.40;43.30;;;;;;10296403;28;20223;-71
2023/01/27 05:07:39;;;;;;;13.47;9.57;;;4.40;43.50;;;;;;10297523;28;20243;-75
2023/01/27 05:12:42;;;;;;;12.43;8.90;;;4.40;43.30;;;;;;10295714;28;20228;-75
2023/01/27 05:17:47;;;;;;;12.93;8.60;;;4.40;43.40;;;;;;10297487;28;20247;-75
2023/01/27 05:23:33;;;;;;;12.17;8.97;;;4.40;43.30;;;;;;10294054;28;20654;-75
2023/01/27 05:28:14;;;;;;;12.10;9.47;;;4.40;43.50;;;;;;10295664;28;20218;-74
2023/01/27 05:33:19;;;;;;;11.57;9.30;;;4.50;43.60;;;;;;10298449;28;20223;-75
2023/01/27 05:38:22;;;;;;;12.40;9.50;;;4.40;43.40;;;;;;10297646;28;20238;-75
2023/01/27 05:43:26;;;;;;;13.43;9.63;;;4.60;43.60;;;;;;10295246;28;20226;-75
2023/01/27 05:48:31;;;;;;;12.10;9.27;;;4.50;43.40;;;;;;10291786;28;20282;-74
2023/01/27 05:53:35;;;;;;;11.93;9.33;;;4.60;43.40;;;;;;10296107;28;20839;-75
2023/01/27 05:58:39;;;;;;;11.90;9.27;;;4.40;43.20;;;;;;10299745;28;20597;-75
2023/01/27 06:03:45;;;;;;;13.87;9.40;;;4.40;43.20;;;;;;10291081;28;20224;-71
2023/01/27 06:08:49;;;;;;;13.27;10.17;;;4.40;43.20;;;;;;10295329;28;20244;-70
2023/01/27 06:13:53;;;;;;;12.77;9.70;;;4.40;43.10;;;;;;10295411;28;20273;-71
2023/01/27 06:18:58;;;;;;;12.20;9.40;;;4.40;43.10;;;;;;10294876;28;20226;-72
2023/01/27 06:24:03;;;;;;;13.23;9.60;;;4.40;43.10;;;;;;10294615;28;20967;-72
2023/01/27 06:29:06;;;;;;;14.00;10.97;;;4.40;43.60;;;;;;10293582;28;20281;-70
2023/01/27 06:34:10;;;;;;;15.27;10.90;;;4.40;43.50;;;;;;10295616;28;20814;-71
2023/01/27 06:39:15;;;;;;;14.00;10.20;;;4.40;43.40;;;;;;10292194;28;20250;-71
2023/01/27 06:44:18;;;;;;;12.83;10.43;;;4.50;43.50;;;;;;10296735;28;20313;-71
2023/01/27 06:49:22;;;;;;;15.33;10.47;;;4.40;43.40;;;;;;10293474;28;20300;-72
2023/01/27 06:54:26;;;;;;;14.07;10.83;;;4.40;43.40;;;;;;10284526;28;20235;-72
2023/01/27 06:59:29;;;;;;;13.53;10.83;;;4.50;43.30;;;;;;10282580;28;20223;-72
2023/01/27 07:04:34;;;;;;;15.37;10.73;;;4.50;43.30;;;;;;10285865;28;20231;-71
2023/01/27 07:09:37;;;;;;;15.97;11.27;;;4.50;43.40;;;;;;10285510;28;20730;-71
2023/01/27 07:14:54;;;;;;;15.50;11.50;;;4.50;43.40;;;;;;10285695;28;20238;-71
2023/01/27 07:19:59;;;;;;;14.73;10.53;;;4.50;43.30;;;;;;10287082;28;20235;-72
2023/01/27 07:25:02;;;;;;;14.20;10.90;;;4.50;43.10;;;;;;10285625;28;20235;-72
2023/01/27 07:30:06;;;;;;;15.67;11.23;;;4.50;43.10;;;;;;10290762;28;21023;-72
2023/01/27 07:35:10;;;;;;;15.60;11.00;;;4.50;43.20;;;;;;10291270;28;20600;-72
2023/01/27 07:40:14;;;;;;;15.03;10.90;;;4.60;43.30;;;;;;10293356;28;20278;-75
2023/01/27 07:45:18;;;;;;;15.33;10.43;;;4.50;43.20;;;;;;10297804;28;20652;-71
2023/01/27 07:50:22;;;;;;;14.63;11.03;;;4.50;43.20;;;;;;10293590;28;20231;-71
2023/01/27 07:55:25;;;;;;;15.60;11.50;;;4.50;43.20;;;;;;10289729;28;20235;-71
2023/01/27 08:00:29;;;;;;;15.67;11.27;;;4.60;43.20;;;;;;10294384;28;20235;-71
2023/01/27 08:05:34;;;;;;;18.50;12.37;;;4.50;43.10;;;;;;10297473;28;20235;-71
2023/01/27 08:10:37;;;;;;;16.17;11.70;;;4.50;43.00;;;;;;10293580;28;20232;-75
2023/01/27 08:15:41;;;;;;;18.93;12.03;;;4.40;42.90;;;;;;10297890;28;20770;-75
2023/01/27 08:20:45;;;;;;;18.40;12.20;;;4.40;43.10;;;;;;10294111;28;20231;-72
2023/01/27 08:25:51;;;;;;;17.10;12.13;;;4.40;43.10;;;;;;10290858;28;20239;-72
2023/01/27 08:30:55;;;;;;;17.00;11.87;;;4.40;43.10;;;;;;10290431;28;20244;-72
2023/01/27 08:36:02;;;;;;;19.33;12.77;;;4.40;43.20;;;;;;10286195;28;20236;-72
2023/01/27 08:41:06;;;;;;;17.17;12.57;;;4.40;43.20;;;;;;10290895;28;20219;-72
2023/01/27 08:46:10;;;;;;;17.20;12.73;;;4.40;43.30;;;;;;10294031;28;20245;-72
2023/01/27 08:51:15;;;;;;;17.00;12.80;;;4.40;43.30;;;;;;10295874;28;20285;-72
2023/01/27 08:56:18;;;;;;;16.87;12.07;;;4.40;43.40;;;;;;10290542;28;20324;-70
2023/01/27 09:01:21;;;;;;;18.77;12.50;;;4.50;43.30;;;;;;10293127;28;20235;-70
2023/01/27 09:06:26;;;;;;;17.03;12.30;;;4.50;43.40;;;;;;10294598;28;20240;-70
2023/01/27 09:11:29;;;;;;;18.37;12.20;;;4.50;43.50;;;;;;10293710;28;20255;-70
2023/01/27 09:16:32;;;;;;;17.73;13.17;;;4.60;43.60;;;;;;10294806;28;20241;-70
2023/01/27 09:21:37;;;;;;;18.67;13.77;;;4.60;43.50;;;;;;10299504;28;20314;-71
2023/01/27 09:26:40;;;;;;;19.17;13.93;;;4.50;43.30;;;;;;10293338;28;20238;-71
2023/01/27 09:31:43;;;;;;;21.60;14.60;;;4.60;43.40;;;;;;10288863;28;20879;-71
2023/01/27 09:36:51;;;;;;;22.63;15.13;;;4.60;43.40;;;;;;10288658;28;20240;-74
2023/01/27 09:42:17;;;;;;;21.40;15.20;;;4.60;43.30;;;;;;10288181;28;20222;-74
2023/01/27 09:47:42;;;;;;;20.80;14.70;;;4.50;43.20;;;;;;10288189;28;20270;-74
2023/01/27 09:53:22;;;;;;;21.30;15.43;;;4.60;43.30;;;;;;10289386;28;20227;-74
2023/01/27 09:58:37;;;;;;;20.17;13.73;;;4.60;43.50;;;;;;10286919;28;20232;-74
2023/01/27 10:04:12;;;;;;;20.20;14.63;;;4.60;43.40;;;;;;10286692;28;20231;-74
2023/01/27 10:10:03;;;;;;;19.40;13.43;;;4.60;43.50;;;;;;10289720;28;20234;-75
2023/01/27 10:15:18;;;;;;;22.87;14.63;;;4.60;43.50;;;;;;10287387;28;20235;-74
2023/01/27 10:20:29;;;;;;;21.77;15.10;;;4.70;43.60;;;;;;10286126;28;20241;-72
2023/01/27 10:25:46;;;;;;;21.83;15.03;;;4.70;43.50;;;;;;10291050;28;20918;-72
2023/01/27 10:30:55;;;;;;;19.10;14.17;;;4.80;43.50;;;;;;10287216;28;20245;-74
2023/01/27 10:36:03;;;;;;;18.57;13.53;;;4.70;43.60;;;;;;10287777;28;20318;-74
2023/01/27 10:41:18;;;;;;;21.37;14.57;;;4.70;43.40;;;;;;10284097;28;20224;-74
2023/01/27 10:46:29;;;;;;;18.53;13.77;;;4.70;43.30;;;;;;10292798;28;20266;-75
2023/01/27 10:51:37;;;;;;;16.83;12.80;;;4.70;43.40;;;;;;10288822;28;20227;-69
2023/01/27 10:56:45;;;;;;;14.10;11.43;;;4.70;43.30;;;;;;10291509;28;20227;-70
2023/01/27 11:01:53;;;;;;;16.53;12.97;;;4.70;43.10;;;;;;10295941;28;20250;-72
2023/01/27 11:06:57;;;;;;;15.30;12.03;;;4.70;43.30;;;;;;10295970;28;21125;-70
2023/01/27 11:12:05;;;;;;;15.67;11.90;;;4.70;43.20;;;;;;10295745;28;20227;-73
2023/01/27 11:17:17;;;;;;;14.90;11.70;;;4.70;43.20;;;;;;10297900;28;20235;-75
2023/01/27 11:22:24;;;;;;;13.47;11.27;;;4.70;43.30;;;;;;10300195;28;20223;-70
2023/01/27 11:27:39;;;;;;;12.87;10.37;;;4.70;43.70;;;;;;10301939;28;20245;-71
2023/01/27 11:32:52;;;;;;;13.43;11.20;;;4.80;43.60;;;;;;10302943;28;20939;-71
2023/01/27 11:37:55;;;;;;;13.80;11.70;;;4.80;43.40;;;;;;10306968;28;20235;-72
2023/01/27 11:43:20;;;;;;;13.80;11.40;;;4.80;43.40;;;;;;10303763;28;20655;-75
2023/01/27 11:48:23;;;;;;;11.93;10.40;;;4.90;43.30;;;;;;10297682;28;20231;-75
2023/01/27 11:53:31;;;;;;;13.70;11.23;;;4.90;43.60;;;;;;10294043;28;20227;-75
2023/01/27 11:58:43;;;;;;;13.17;10.73;;;4.90;43.60;;;;;;10293331;28;20242;-71
2023/01/27 12:03:53;;;;;;;14.47;11.77;;;5.00;43.80;;;;;;10300172;28;20239;-70
2023/01/27 12:08:56;;;;;;;14.77;12.27;;;5.00;43.90;;;;;;10301380;28;20320;-69
2023/01/27 12:14:02;;;;;;;13.47;11.17;;;5.00;43.70;;;;;;10305218;28;20219;-71
2023/01/27 12:19:21;;;;;;;14.23;11.50;;;5.00;43.60;;;;;;10300410;28;20227;-70
2023/01/27 12:24:29;;;;;;;13.13;10.83;;;5.00;43.70;;;;;;10301430;28;20233;-74
2023/01/27 12:29:40;;;;;;;12.30;10.67;;;4.90;44.40;;;;;;10298575;28;20326;-75
2023/01/27 12:34:46;;;;;;;12.63;10.60;;;4.90;44.20;;;;;;10302580;28;20243;-75
2023/01/27 12:39:55;;;;;;;12.97;10.90;;;5.00;43.90;;;;;;10302591;28;20277;-70
2023/01/27 12:45:01;;;;;;;11.47;10.27;;;5.00;43.80;;;;;;10301252;28;20227;-70
2023/01/27 12:50:21;;;;;;;11.23;9.83;;;5.00;43.80;;;;;;10296701;28;20257;-70
2023/01/27 12:55:29;;;;;;;11.30;9.83;;;5.00;43.80;;;;;;10291207;28;20227;-70
2023/01/27 13:00:34;;;;;;;11.13;9.83;;;5.10;43.90;;;;;;10298128;28;20603;-70
2023/01/27 13:05:40;;;;;;;11.60;9.63;;;5.10;43.80;;;;;;10295300;28;20228;-70
2023/01/27 13:10:51;;;;;;;10.83;9.43;;;5.10;43.70;;;;;;10297498;28;20238;-70
2023/01/27 13:16:04;;;;;;;10.53;9.40;;;5.10;43.80;;;;;;10298310;28;20685;-70
2023/01/27 13:21:14;;;;;;;12.10;10.87;;;5.10;43.90;;;;;;10296625;28;20614;-70
2023/01/27 13:26:21;;;;;;;12.73;11.40;;;5.20;43.90;;;;;;10294564;28;20242;-70
2023/01/27 13:31:40;;;;;;;10.97;9.07;;;5.20;43.90;;;;;;10300360;28;20635;-69
2023/01/27 13:36:48;;;;;;;12.20;10.40;;;5.20;43.70;;;;;;10298054;28;20258;-69
2023/01/27 13:41:56;;;;;;;12.20;10.33;;;5.20;43.70;;;;;;10302060;28;20219;-70
2023/01/27 13:47:05;;;;;;;12.27;10.53;;;5.20;43.60;;;;;;10295349;28;20802;-70
2023/01/27 13:52:11;;;;;;;11.67;10.37;;;5.20;43.50;;;;;;10294191;28;20238;-70
2023/01/27 13:57:43;;;;;;;12.60;10.83;;;5.30;43.60;;;;;;10295574;28;20238;-70
2023/01/27 14:03:23;;;;;;;11.20;10.00;;;5.20;43.50;;;;;;10296102;28;20735;-70
2023/01/27 14:08:48;;;;;;;11.13;9.57;;;5.30;43.60;;;;;;10295105;28;21279;-71
2023/01/27 14:14:03;;;;;;;11.90;9.63;;;5.20;44.20;;;;;;10294317;28;20231;-70
2023/01/27 14:19:24;;;;;;;10.63;9.50;;;5.30;43.60;;;;;;10297692;28;20225;-70
2023/01/27 14:24:38;;;;;;;11.70;10.17;;;5.30;43.40;;;;;;10300303;28;20278;-70
2023/01/27 14:29:47;;;;;;;11.97;10.43;;;5.30;43.30;;;;;;10296903;28;20766;-70
2023/01/27 14:35:06;;;;;;;12.00;10.43;;;5.30;43.30;;;;;;10298316;28;20230;-70
2023/01/27 14:40:18;;;;;;;12.37;10.77;;;5.30;43.30;;;;;;10294341;28;20225;-70
2023/01/27 14:45:24;;;;;;;11.13;9.90;;;5.30;43.50;;;;;;10297293;28;20234;-70
2023/01/27 14:50:37;;;;;;;11.83;10.27;;;5.30;43.40;;;;;;10291994;28;20235;-70
2023/01/27 14:55:48;;;;;;;13.27;11.03;;;5.30;43.30;;;;;;10294832;28;20861;-70
2023/01/27 15:01:03;;;;;;;12.13;10.93;;;5.30;43.30;;;;;;10304178;28;20223;-70
2023/01/27 15:06:15;;;;;;;12.57;10.63;;;5.20;43.20;;;;;;10300169;28;20301;-70
2023/01/27 15:11:31;;;;;;;12.30;10.70;;;5.20;43.30;;;;;;10307183;28;20226;-70
2023/01/27 15:16:55;;;;;;;11.50;10.30;;;5.20;43.30;;;;;;10305929;28;20234;-69
2023/01/27 15:22:29;;;;;;;11.80;10.17;;;5.20;43.30;;;;;;10302317;28;20996;-70
2023/01/27 15:27:34;;;;;;;10.80;9.70;;;5.30;43.30;;;;;;10302563;28;20691;-70
2023/01/27 15:32:38;;;;;;;10.50;9.40;;;5.20;43.10;;;;;;10297675;28;20223;-75
2023/01/27 15:37:59;;;;;;;10.77;9.67;;;5.30;43.40;;;;;;10301922;28;20231;-74
2023/01/27 15:43:04;;;;;;;11.13;10.00;;;5.30;43.20;;;;;;10303205;28;20220;-76
2023/01/27 15:48:14;;;;;;;11.63;10.43;;;5.30;43.10;;;;;;10301595;28;20238;-75
2023/01/27 15:53:28;;;;;;;12.73;10.97;;;5.30;43.00;;;;;;10301012;28;20242;-71
2023/01/27 15:58:34;;;;;;;11.70;10.50;;;5.20;42.90;;;;;;10301544;28;20707;-71
2023/01/27 16:03:42;;;;;;;11.27;10.17;;;5.20;42.90;;;;;;10298493;28;20809;-71
2023/01/27 16:08:51;;;;;;;15.87;14.07;;;5.10;42.80;;;;;;10295087;28;20318;-71
2023/01/27 16:14:33;;;;;;;13.27;11.93;;;5.10;42.80;;;;;;10296759;28;20238;-71
2023/01/27 16:19:43;;;;;;;13.20;11.83;;;5.10;43.80;;;;;;10286664;28;20226;-70
2023/01/27 16:24:55;;;;;;;12.20;11.00;;;5.10;43.10;;;;;;10299509;28;20249;-71
2023/01/27 16:30:05;;;;;;;13.10;11.70;;;5.10;42.90;;;;;;10298784;28;20226;-71
2023/01/27 16:35:19;;;;;;;11.90;10.70;;;5.10;42.90;;;;;;10301447;28;20233;-70
2023/01/27 16:40:24;;;;;;;12.00;10.73;;;5.20;42.90;;;;;;10293673;28;20763;-72
2023/01/27 16:45:38;;;;;;;12.57;11.30;;;5.10;43.10;;;;;;10295805;28;20586;-72
2023/01/27 16:50:43;;;;;;;11.93;10.73;;;5.20;43.50;;;;;;10298797;28;20235;-72
2023/01/27 16:56:00;;;;;;;12.73;11.13;;;5.30;43.60;;;;;;10297557;28;20239;-72
2023/01/27 17:01:03;;;;;;;10.83;9.73;;;5.30;43.00;;;;;;10300347;28;20662;-72
2023/01/27 17:06:14;;;;;;;11.13;10.03;;;5.40;43.10;;;;;;10301456;28;20330;-71
2023/01/27 17:11:24;;;;;;;11.37;10.27;;;5.40;43.10;;;;;;10295190;28;20693;-71
2023/01/27 17:16:31;;;;;;;10.73;9.63;;;5.40;43.10;;;;;;10299748;28;20242;-71
2023/01/27 17:21:37;;;;;;;11.67;10.47;;;5.40;43.10;;;;;;10299374;28;20225;-69
2023/01/27 17:26:45;;;;;;;11.30;10.20;;;5.50;42.90;;;;;;10298056;28;20238;-73
2023/01/27 17:31:49;;;;;;;11.67;10.00;;;5.50;42.60;;;;;;10297144;28;20238;-69
2023/01/27 17:37:13;;;;;;;11.17;9.93;;;5.40;42.80;;;;;;10295669;28;20235;-69
2023/01/27 17:42:20;;;;;;;11.63;10.10;;;5.40;42.30;;;;;;10299152;28;20229;-70
2023/01/27 17:47:24;;;;;;;11.10;9.87;;;5.40;42.20;;;;;;10296296;28;20281;-69
2023/01/27 17:52:29;;;;;;;12.33;10.67;;;5.30;42.20;;;;;;10298172;28;20239;-69
2023/01/27 17:57:35;;;;;;;12.43;10.77;;;5.30;42.30;;;;;;10294819;28;20274;-69
2023/01/27 18:02:43;;;;;;;12.10;10.03;;;5.30;42.10;;;;;;10290206;28;20227;-69
2023/01/27 18:07:47;;;;;;;10.07;9.00;;;5.20;42.00;;;;;;10295567;28;20223;-69
2023/01/27 18:12:51;;;;;;;11.33;9.63;;;5.20;42.40;;;;;;10299607;28;20238;-71
2023/01/27 18:17:58;;;;;;;9.80;8.80;;;5.20;42.40;;;;;;10306190;28;20227;-71
2023/01/27 18:23:04;;;;;;;10.40;9.27;;;5.20;42.40;;;;;;10299726;28;20227;-71
2023/01/27 18:28:09;;;;;;;10.17;8.70;;;5.20;42.50;;;;;;10299880;28;20234;-71
2023/01/27 18:33:13;;;;;;;10.53;9.07;;;5.20;42.40;;;;;;10306916;28;20231;-71
2023/01/27 18:38:22;;;;;;;10.37;8.90;;;5.20;42.40;;;;;;10307336;28;20238;-71
2023/01/27 18:43:27;;;;;;;9.80;8.80;;;5.20;42.20;;;;;;10311454;28;20301;-71
2023/01/27 18:48:32;;;;;;;10.17;8.77;;;5.30;42.40;;;;;;10294147;28;20819;-69
2023/01/27 18:53:35;;;;;;;10.10;8.93;;;5.30;42.40;;;;;;10298739;28;20238;-71
2023/01/27 18:58:39;;;;;;;10.47;8.40;;;5.30;42.30;;;;;;10294464;28;20242;-69
2023/01/27 19:03:43;;;;;;;9.63;8.67;;;5.20;42.10;;;;;;10289462;28;21012;-69
2023/01/27 19:08:47;;;;;;;9.70;8.57;;;5.20;42.10;;;;;;10292204;28;20231;-69
2023/01/27 19:13:52;;;;;;;9.07;8.10;;;5.20;42.20;;;;;;10288668;28;20599;-74
2023/01/27 19:18:55;;;;;;;9.80;8.60;;;5.20;42.10;;;;;;10293519;28;20241;-72
2023/01/27 19:23:58;;;;;;;9.07;8.17;;;5.20;42.20;;;;;;10294641;28;20227;-72
2023/01/27 19:29:03;;;;;;;9.10;8.20;;;5.20;42.10;;;;;;10293312;28;20235;-72
2023/01/27 19:34:10;;;;;;;9.60;8.40;;;5.10;41.90;;;;;;10292288;28;20227;-72
2023/01/27 19:39:15;;;;;;;10.57;8.17;;;5.10;41.90;;;;;;10286730;28;20223;-72
2023/01/27 19:44:20;;;;;;;9.73;8.70;;;5.10;42.10;;;;;;10294052;28;20706;-72
2023/01/27 19:49:23;;;;;;;9.93;7.60;;;5.10;42.10;;;;;;10295486;28;20239;-69
2023/01/27 19:54:29;;;;;;;8.90;8.00;;;5.10;42.20;;;;;;10292493;28;20246;-69
2023/01/27 19:59:33;;;;;;;9.93;8.27;;;5.10;42.10;;;;;;10292735;28;20238;-73
2023/01/27 20:04:36;;;;;;;10.17;8.27;;;5.00;42.00;;;;;;10290440;28;20227;-72
2023/01/27 20:09:40;;;;;;;9.40;8.40;;;5.10;42.20;;;;;;10288165;28;20583;-72
2023/01/27 20:14:45;;;;;;;8.90;8.00;;;5.00;42.20;;;;;;10287384;28;20242;-69
2023/01/27 20:19:48;;;;;;;9.20;8.30;;;5.00;42.20;;;;;;10285579;28;20231;-69
2023/01/27 20:24:51;;;;;;;9.80;8.73;;;5.00;42.20;;;;;;10294715;28;20235;-69
2023/01/27 20:29:56;;;;;;;9.97;8.70;;;5.00;42.20;;;;;;10287547;28;20231;-69
2023/01/27 20:34:59;;;;;;;10.27;9.07;;;5.00;42.10;;;;;;10299123;28;20223;-69
2023/01/27 20:40:02;;;;;;;9.53;8.53;;;5.00;42.00;;;;;;10303751;28;20688;-73
2023/01/27 20:45:08;;;;;;;10.23;8.57;;;5.00;42.20;;;;;;10299853;28;20242;-73
2023/01/27 20:50:12;;;;;;;9.93;8.40;;;5.00;42.20;;;;;;10306585;28;20716;-69
2023/01/27 20:55:18;;;;;;;9.53;8.53;;;4.90;42.20;;;;;;10299390;28;20319;-69
2023/01/27 21:00:23;;;;;;;9.53;8.57;;;4.90;42.40;;;;;;10295867;28;20235;-69
2023/01/27 21:05:26;;;;;;;10.80;8.73;;;5.00;42.40;;;;;;10299808;28;20234;-72
2023/01/27 21:10:29;;;;;;;10.60;9.10;;;5.00;42.50;;;;;;10298822;28;20818;-72
2023/01/27 21:15:33;;;;;;;10.33;9.13;;;5.00;42.40;;;;;;10296560;28;20234;-73
2023/01/27 21:20:37;;;;;;;10.30;8.93;;;4.90;42.30;;;;;;10301149;28;20227;-72
2023/01/27 21:25:40;;;;;;;11.33;10.10;;;4.90;42.70;;;;;;10296312;28;20235;-74
2023/01/27 21:30:45;;;;;;;12.53;9.43;;;4.90;42.30;;;;;;10294588;28;20223;-74
2023/01/27 21:35:54;;;;;;;11.33;10.10;;;4.90;42.30;;;;;;10291844;28;20762;-73
2023/01/27 21:41:03;;;;;;;12.80;11.07;;;4.80;42.60;;;;;;10291083;28;20252;-71
2023/01/27 21:46:08;;;;;;;12.13;9.90;;;4.80;42.60;;;;;;10294218;28;20638;-71
2023/01/27 21:51:11;;;;;;;13.40;10.83;;;4.80;42.60;;;;;;10294670;28;20231;-71
2023/01/27 21:56:14;;;;;;;14.13;11.47;;;4.80;42.60;;;;;;10293899;28;20231;-71
2023/01/27 22:01:19;;;;;;;13.90;11.73;;;4.70;42.50;;;;;;10294733;28;20692;-71
2023/01/27 22:06:22;;;;;;;13.63;11.33;;;4.70;42.50;;;;;;10300026;28;20242;-71
2023/01/27 22:11:26;;;;;;;14.47;11.03;;;4.70;42.50;;;;;;10305531;28;20533;-71
2023/01/27 22:16:30;;;;;;;12.50;10.80;;;4.70;42.60;;;;;;10297051;28;20276;-71
2023/01/27 22:21:33;;;;;;;15.90;11.87;;;4.70;42.90;;;;;;10299254;28;20234;-71
2023/01/27 22:26:37;;;;;;;15.57;11.80;;;4.70;42.90;;;;;;10298526;28;20727;-71
2023/01/27 22:31:41;;;;;;;15.83;11.43;;;4.70;42.90;;;;;;10297584;28;20223;-72
2023/01/27 22:36:48;;;;;;;12.93;10.60;;;4.70;42.80;;;;;;10292081;28;20985;-73
2023/01/27 22:41:51;;;;;;;14.70;10.83;;;4.70;42.70;;;;;;10292986;28;20242;-69
2023/01/27 22:46:56;;;;;;;14.73;11.40;;;4.70;42.60;;;;;;10289988;28;20588;-72
2023/01/27 22:51:59;;;;;;;12.67;11.20;;;4.70;42.80;;;;;;10293312;28;20235;-69
2023/01/27 22:57:02;;;;;;;14.43;11.27;;;4.70;42.70;;;;;;10293798;28;20234;-71
2023/01/27 23:02:07;;;;;;;14.70;11.67;;;4.70;42.80;;;;;;10301338;28;20672;-70
2023/01/27 23:07:10;;;;;;;13.00;10.67;;;4.70;42.80;;;;;;10296513;28;20236;-73
2023/01/27 23:12:14;;;;;;;14.03;11.40;;;4.70;42.80;;;;;;10295953;28;20234;-73
2023/01/27 23:17:18;;;;;;;12.80;10.43;;;4.70;42.80;;;;;;10300262;28;20239;-73
2023/01/27 23:22:21;;;;;;;14.80;11.00;;;4.70;42.80;;;;;;10306512;28;20234;-73
2023/01/27 23:27:25;;;;;;;14.33;11.87;;;4.80;42.60;;;;;;10308625;28;20722;-72
2023/01/27 23:32:29;;;;;;;15.00;11.57;;;4.80;42.70;;;;;;10311742;28;20309;-73
2023/01/27 23:37:32;;;;;;;13.73;11.13;;;4.80;42.80;;;;;;10304638;28;20241;-69
2023/01/27 23:42:36;;;;;;;14.37;11.43;;;4.80;42.60;;;;;;10311206;28;20287;-71
2023/01/27 23:47:40;;;;;;;14.00;11.17;;;4.80;42.60;;;;;;10308629;28;20235;-72
2023/01/27 23:52:43;;;;;;;13.20;10.77;;;4.80;42.60;;;;;;10303974;28;20231;-70
2023/01/27 23:57:46;;;;;;;14.37;11.07;;;4.80;42.60;;;;;;10298992;28;20231;-70
